createdAt,value
2019-03-17T00:01:12.199Z,45.20
2019-03-17T00:03:42.289Z,42.27
2019-03-17T00:06:13.214Z,35.23
2019-03-17T00:08:47.549Z,29.60
2019-03-17T00:11:17.364Z,30.97
2019-03-17T00:13:47.245Z,29.17
2019-03-17T00:16:18.609Z,25.13
2019-03-17T00:18:49.427Z,27.00
2019-03-17T00:21:19.309Z,26.87
2019-03-17T00:23:48.515Z,20.17
2019-03-17T00:26:19.769Z,19.10
2019-03-17T00:28:50.743Z,19.60
2019-03-17T00:31:24.163Z,18.50
2019-03-17T00:33:52.215Z,18.77
2019-03-17T00:36:22.034Z,19.50
2019-03-17T00:38:51.919Z,19.77
2019-03-17T00:41:23.089Z,22.10
2019-03-17T00:43:54.110Z,21.63
2019-03-17T00:46:23.279Z,20.07
2019-03-17T00:48:54.263Z,30.67
2019-03-17T00:51:26.623Z,38.20
2019-03-17T00:53:57.358Z,44.23
2019-03-17T00:56:46.515Z,49.17
2019-03-17T00:59:17.659Z,48.77
2019-03-17T01:01:47.830Z,40.10
2019-03-17T01:04:18.855Z,29.90
2019-03-17T01:06:48.739Z,19.60
2019-03-17T01:09:19.381Z,22.90
2019-03-17T01:11:49.151Z,26.73
2019-03-17T01:14:19.535Z,25.80
2019-03-17T01:16:50.689Z,18.30
2019-03-17T01:19:19.971Z,8.63
2019-03-17T01:21:52.140Z,7.10
2019-03-17T01:24:22.993Z,6.47
2019-03-17T01:26:55.219Z,8.00
2019-03-17T01:29:26.045Z,7.23
2019-03-17T01:31:56.923Z,8.97
2019-03-17T01:34:28.913Z,9.17
2019-03-17T01:36:58.809Z,8.53
2019-03-17T01:39:28.856Z,16.73
2019-03-17T01:42:01.821Z,21.87
2019-03-17T01:44:31.625Z,22.33
2019-03-17T01:47:02.652Z,17.93
2019-03-17T01:49:31.911Z,25.33
2019-03-17T01:52:01.913Z,10.90
2019-03-17T01:54:31.775Z,14.43
2019-03-17T01:57:02.710Z,12.00
2019-03-17T01:59:32.738Z,11.97
2019-03-17T02:02:03.945Z,10.07
2019-03-17T02:04:33.803Z,10.63
2019-03-17T02:07:04.958Z,9.67
2019-03-17T02:09:35.860Z,9.33
2019-03-17T02:12:07.415Z,10.08
2019-03-17T02:14:37.264Z,15.03
2019-03-17T02:17:08.228Z,13.40
2019-03-17T02:19:38.172Z,12.60
2019-03-17T02:22:08.419Z,13.83
2019-03-17T02:24:41.162Z,11.40
2019-03-17T02:27:10.933Z,12.10
2019-03-17T02:29:42.296Z,10.87
2019-03-17T02:32:12.380Z,16.30
2019-03-17T02:34:42.995Z,15.27
2019-03-17T02:37:15.152Z,13.70
2019-03-17T02:39:44.964Z,12.13
2019-03-17T02:42:15.809Z,11.97
2019-03-17T02:44:48.325Z,10.33
2019-03-17T02:47:19.318Z,11.40
2019-03-17T02:49:48.613Z,14.80
2019-03-17T02:52:19.892Z,12.00
2019-03-17T02:54:50.871Z,14.20
2019-03-17T02:57:23.141Z,12.83
2019-03-17T02:59:54.045Z,10.60
2019-03-17T03:02:24.879Z,20.20
2019-03-17T03:04:54.900Z,9.97
2019-03-17T03:07:26.032Z,11.80
2019-03-17T03:09:56.924Z,9.10
2019-03-17T03:12:28.035Z,9.07
2019-03-17T03:14:58.970Z,9.47
2019-03-17T03:17:28.912Z,9.80
2019-03-17T03:20:01.206Z,11.00
2019-03-17T03:22:32.118Z,9.57
2019-03-17T03:25:03.052Z,11.10
2019-03-17T03:27:35.098Z,10.07
2019-03-17T03:30:08.424Z,10.63
2019-03-17T03:32:38.352Z,13.53
2019-03-17T03:35:11.272Z,15.00
2019-03-17T03:37:42.514Z,14.33
2019-03-17T03:40:17.189Z,12.03
2019-03-17T03:42:48.162Z,11.67
2019-03-17T03:45:18.156Z,15.07
2019-03-17T03:47:47.439Z,11.90
2019-03-17T03:50:17.368Z,21.80
2019-03-17T03:52:50.374Z,25.87
2019-03-17T03:55:20.232Z,10.47
2019-03-17T03:57:52.523Z,17.07
2019-03-17T04:00:22.408Z,18.57
2019-03-17T04:02:55.609Z,12.90
2019-03-17T04:05:25.486Z,13.33
2019-03-17T04:07:56.573Z,11.07
2019-03-17T04:10:29.093Z,11.08
2019-03-17T04:13:00.012Z,11.60
2019-03-17T04:15:29.531Z,11.90
2019-03-17T04:18:02.033Z,11.43
2019-03-17T04:20:33.383Z,9.47
2019-03-17T04:23:03.296Z,10.57
2019-03-17T04:25:32.588Z,9.10
2019-03-17T04:28:03.370Z,8.87
2019-03-17T04:30:33.258Z,10.07
2019-03-17T04:33:02.930Z,9.27
2019-03-17T04:35:33.075Z,8.93
2019-03-17T04:38:02.955Z,9.73
2019-03-17T04:40:33.847Z,10.70
2019-03-17T04:43:04.780Z,10.90
2019-03-17T04:45:39.371Z,11.00
2019-03-17T04:48:09.239Z,10.57
2019-03-17T04:50:40.139Z,13.07
2019-03-17T04:53:12.299Z,10.83
2019-03-17T04:55:44.471Z,11.03
2019-03-17T04:58:14.380Z,11.10
2019-03-17T05:00:46.636Z,13.47
2019-03-17T05:03:16.339Z,13.87
2019-03-17T05:05:46.338Z,26.03
2019-03-17T05:08:16.054Z,20.60
2019-03-17T05:10:46.049Z,21.90
2019-03-17T05:13:15.984Z,22.90
2019-03-17T05:15:46.963Z,20.20
2019-03-17T05:18:18.303Z,15.73
2019-03-17T05:20:49.339Z,15.47
2019-03-17T05:23:19.177Z,16.17
2019-03-17T05:25:49.180Z,19.07
2019-03-17T05:28:23.156Z,15.83
2019-03-17T05:30:53.103Z,14.63
2019-03-17T05:33:23.023Z,14.43
2019-03-17T05:35:53.784Z,15.83
2019-03-17T05:38:24.623Z,26.10
2019-03-17T05:40:57.411Z,19.60
2019-03-17T05:43:27.403Z,65.40
2019-03-17T05:45:58.608Z,155.83
2019-03-17T05:48:29.538Z,73.73
2019-03-17T05:51:00.639Z,20.70
2019-03-17T05:53:30.505Z,17.27
2019-03-17T05:56:02.676Z,30.97
2019-03-17T05:58:33.795Z,23.03
2019-03-17T06:01:04.980Z,26.53
2019-03-17T06:03:37.163Z,29.93
2019-03-17T06:06:06.515Z,24.97
2019-03-17T06:08:37.399Z,18.87
2019-03-17T06:11:06.668Z,22.13
2019-03-17T06:13:36.652Z,20.87
2019-03-17T06:16:07.481Z,22.00
2019-03-17T06:18:38.254Z,17.80
2019-03-17T06:21:10.528Z,68.17
2019-03-17T06:23:40.525Z,39.17
2019-03-17T06:26:10.354Z,29.47
2019-03-17T06:28:41.268Z,33.47
2019-03-17T06:31:11.227Z,21.40
2019-03-17T06:33:42.106Z,27.07
2019-03-17T06:36:12.926Z,19.70
2019-03-17T06:38:44.200Z,39.00
2019-03-17T06:41:15.324Z,24.80
2019-03-17T06:43:44.582Z,34.83
2019-03-17T06:46:14.472Z,16.87
2019-03-17T06:48:45.661Z,20.60
2019-03-17T06:51:17.990Z,27.07
2019-03-17T06:53:56.423Z,27.63
2019-03-17T06:56:19.530Z,20.45
2019-03-17T06:58:49.474Z,21.73
2019-03-17T07:01:19.486Z,19.73
2019-03-17T07:03:49.149Z,23.77
2019-03-17T07:06:23.153Z,16.77
2019-03-17T07:08:56.283Z,16.00
2019-03-17T07:11:26.102Z,20.50
2019-03-17T07:13:56.941Z,15.83
2019-03-17T07:16:29.142Z,15.70
2019-03-17T07:19:00.912Z,16.43
2019-03-17T07:21:31.915Z,14.53
2019-03-17T07:24:04.145Z,14.80
2019-03-17T07:26:35.294Z,13.57
2019-03-17T07:29:05.083Z,11.10
2019-03-17T07:31:36.016Z,9.40
2019-03-17T07:34:08.807Z,11.77
2019-03-17T07:36:39.260Z,12.33
2019-03-17T07:39:12.095Z,13.10
2019-03-17T07:41:42.447Z,15.23
2019-03-17T07:44:13.291Z,15.23
2019-03-17T07:46:44.399Z,15.73
2019-03-17T07:49:16.825Z,9.37
2019-03-17T07:51:47.739Z,13.23
2019-03-17T07:54:18.817Z,10.30
2019-03-17T07:56:52.353Z,10.20
2019-03-17T07:59:22.243Z,6.50
2019-03-17T08:01:52.070Z,9.13
2019-03-17T08:04:26.207Z,8.07
2019-03-17T08:07:00.876Z,6.30
2019-03-17T08:09:31.735Z,5.63
2019-03-17T08:12:03.481Z,6.50
2019-03-17T08:14:34.635Z,5.10
2019-03-17T08:17:04.636Z,4.50
2019-03-17T08:19:34.511Z,5.03
2019-03-17T08:22:04.389Z,5.87
2019-03-17T08:24:34.384Z,8.87
2019-03-17T08:27:05.315Z,6.50
2019-03-17T08:29:35.177Z,4.50
2019-03-17T08:32:04.464Z,3.37
2019-03-17T08:34:35.354Z,3.83
2019-03-17T08:37:07.277Z,4.27
2019-03-17T08:39:39.699Z,6.83
2019-03-17T08:42:10.512Z,5.37
2019-03-17T08:44:41.490Z,6.43
2019-03-17T08:47:12.831Z,4.87
2019-03-17T08:49:43.844Z,3.30
2019-03-17T08:52:16.003Z,2.80
2019-03-17T08:54:47.037Z,3.10
2019-03-17T08:57:18.282Z,2.98
2019-03-17T08:59:49.331Z,3.20
2019-03-17T09:02:20.142Z,4.23
2019-03-17T09:04:51.046Z,4.10
2019-03-17T09:07:27.771Z,3.15
2019-03-17T09:09:56.995Z,3.00
2019-03-17T09:12:26.917Z,2.80
2019-03-17T09:15:01.369Z,3.20
2019-03-17T09:17:31.436Z,2.40
2019-03-17T09:20:03.644Z,2.67
2019-03-17T09:22:34.631Z,3.87
2019-03-17T09:25:05.396Z,2.33
2019-03-17T09:27:36.706Z,3.10
2019-03-17T09:30:09.166Z,4.77
2019-03-17T09:32:38.072Z,2.70
2019-03-17T09:35:11.267Z,11.57
2019-03-17T09:37:43.230Z,4.87
2019-03-17T09:40:16.524Z,5.67
2019-03-17T09:42:47.594Z,9.70
2019-03-17T09:45:17.378Z,5.07
2019-03-17T09:48:09.673Z,6.33
2019-03-17T09:50:39.138Z,3.17
2019-03-17T09:53:08.331Z,3.43
2019-03-17T09:55:39.330Z,1.10
2019-03-17T09:58:10.252Z,1.40
2019-03-17T10:00:41.539Z,1.37
2019-03-17T10:03:12.628Z,1.17
2019-03-17T10:05:44.755Z,1.57
2019-03-17T10:08:14.643Z,2.10
2019-03-17T10:10:45.670Z,0.93
2019-03-17T10:13:14.965Z,0.90
2019-03-17T10:15:46.044Z,1.10
2019-03-17T10:18:21.992Z,1.00
2019-03-17T10:20:56.308Z,0.90
2019-03-17T10:23:27.224Z,1.63
2019-03-17T10:25:58.127Z,1.30
2019-03-17T10:28:31.367Z,1.00
2019-03-17T10:31:04.719Z,0.80
2019-03-17T10:33:35.599Z,0.90
2019-03-17T10:36:05.695Z,0.80
2019-03-17T10:38:35.621Z,1.83
2019-03-17T10:41:07.963Z,0.90
2019-03-17T10:43:37.199Z,0.80
2019-03-17T10:46:08.307Z,0.70
2019-03-17T10:48:38.246Z,1.80
2019-03-17T10:51:08.135Z,1.43
2019-03-17T10:53:38.040Z,0.80
2019-03-17T10:56:09.047Z,1.10
2019-03-17T10:58:38.919Z,1.03
2019-03-17T11:01:09.810Z,0.83
2019-03-17T11:03:41.930Z,0.90
2019-03-17T11:06:11.859Z,1.30
2019-03-17T11:08:43.734Z,0.80
2019-03-17T11:11:14.843Z,0.87
2019-03-17T11:13:45.664Z,0.93
2019-03-17T11:16:16.747Z,1.07
2019-03-17T11:18:46.546Z,1.03
2019-03-17T11:21:17.487Z,1.00
2019-03-17T11:23:47.249Z,0.70
2019-03-17T11:26:20.719Z,0.90
2019-03-17T11:28:51.640Z,1.00
2019-03-17T11:31:22.626Z,0.93
2019-03-17T11:33:53.511Z,1.20
2019-03-17T11:36:23.366Z,1.00
2019-03-17T11:38:54.213Z,6.50
2019-03-17T11:41:25.215Z,5.23
2019-03-17T11:44:14.376Z,2.83
2019-03-17T11:46:47.674Z,1.43
2019-03-17T11:49:17.454Z,2.67
2019-03-17T11:51:48.444Z,2.23
2019-03-17T11:54:18.938Z,1.80
2019-03-17T11:56:51.942Z,2.10
2019-03-17T11:59:22.698Z,0.90
2019-03-17T12:01:55.108Z,0.70
2019-03-17T12:04:26.206Z,0.59
2019-03-17T12:06:56.133Z,0.97
2019-03-17T12:09:29.429Z,1.10
2019-03-17T12:11:57.479Z,1.00
2019-03-17T12:14:28.330Z,1.40
2019-03-17T12:16:58.998Z,1.37
2019-03-17T12:19:32.613Z,1.60
2019-03-17T12:22:09.037Z,0.80
2019-03-17T12:24:33.686Z,1.40
2019-03-17T12:27:04.628Z,1.00
2019-03-17T12:29:34.617Z,1.20
2019-03-17T12:32:06.961Z,2.03
2019-03-17T12:34:38.245Z,4.60
2019-03-17T12:37:07.577Z,1.50
2019-03-17T12:39:37.413Z,1.30
2019-03-17T12:42:09.630Z,1.37
2019-03-17T12:44:41.715Z,1.63
2019-03-17T12:47:12.504Z,1.13
2019-03-17T12:49:44.628Z,1.37
2019-03-17T12:52:15.496Z,1.13
2019-03-17T12:54:46.340Z,1.40
2019-03-17T12:57:17.455Z,1.20
2019-03-17T12:59:47.871Z,2.40
2019-03-17T13:02:22.238Z,1.27
2019-03-17T13:04:51.566Z,1.50
2019-03-17T13:07:21.388Z,2.20
2019-03-17T13:09:51.224Z,2.10
2019-03-17T13:12:22.348Z,1.87
2019-03-17T13:14:53.408Z,2.03
2019-03-17T13:17:24.281Z,1.80
2019-03-17T13:19:53.562Z,1.40
2019-03-17T13:22:23.387Z,1.70
2019-03-17T13:24:53.212Z,1.80
2019-03-17T13:27:24.221Z,1.23
2019-03-17T13:29:56.435Z,1.60
2019-03-17T13:32:27.487Z,1.57
2019-03-17T13:34:59.715Z,1.60
2019-03-17T13:37:32.193Z,1.10
2019-03-17T13:40:01.966Z,2.00
2019-03-17T13:42:34.009Z,1.17
2019-03-17T13:45:07.091Z,1.70
2019-03-17T13:47:40.440Z,1.60
2019-03-17T13:50:24.124Z,1.43
2019-03-17T13:52:57.112Z,1.67
2019-03-17T13:55:27.048Z,2.43
2019-03-17T13:58:01.983Z,5.63
2019-03-17T14:00:31.691Z,9.87
2019-03-17T14:03:02.719Z,2.73
2019-03-17T14:05:32.639Z,13.27
2019-03-17T14:08:05.056Z,46.47
2019-03-17T14:10:41.181Z,104.17
2019-03-17T14:13:08.782Z,65.10
2019-03-17T14:15:39.898Z,83.97
2019-03-17T14:18:09.852Z,68.60
2019-03-17T14:20:41.080Z,30.90
2019-03-17T14:23:12.031Z,36.07
2019-03-17T14:25:44.324Z,16.37
2019-03-17T14:28:16.662Z,7.30
2019-03-17T14:30:47.759Z,9.60
2019-03-17T14:33:18.674Z,42.23
2019-03-17T14:35:49.591Z,38.83
2019-03-17T14:38:20.487Z,43.83
2019-03-17T14:40:53.854Z,36.20
2019-03-17T14:43:25.518Z,22.20
2019-03-17T14:45:56.414Z,8.47
2019-03-17T14:48:28.644Z,13.37
2019-03-17T14:50:58.468Z,7.17
2019-03-17T14:53:27.770Z,16.87
2019-03-17T14:55:58.825Z,6.13
2019-03-17T14:58:31.021Z,8.63
2019-03-17T15:01:00.967Z,9.97
2019-03-17T15:03:32.449Z,26.60
2019-03-17T15:06:03.644Z,12.13
2019-03-17T15:08:34.904Z,15.83
2019-03-17T15:11:06.043Z,9.33
2019-03-17T15:13:37.662Z,9.20
2019-03-17T15:16:08.866Z,14.30
2019-03-17T15:18:41.179Z,5.30
2019-03-17T15:21:11.026Z,5.20
2019-03-17T15:23:43.285Z,5.47
2019-03-17T15:26:13.115Z,9.93
2019-03-17T15:28:44.448Z,12.10
2019-03-17T15:31:14.305Z,8.73
2019-03-17T15:33:45.133Z,12.83
2019-03-17T15:36:15.013Z,8.33
2019-03-17T15:38:44.843Z,11.83
2019-03-17T15:41:19.436Z,23.53
2019-03-17T15:43:50.220Z,18.93
2019-03-17T15:46:22.943Z,11.70
2019-03-17T15:48:55.093Z,17.60
2019-03-17T15:51:25.012Z,16.37
2019-03-17T15:53:57.484Z,7.40
2019-03-17T15:56:29.493Z,18.40
2019-03-17T15:59:00.367Z,10.33
2019-03-17T16:01:31.337Z,15.27
2019-03-17T16:04:02.417Z,19.67
2019-03-17T16:06:33.271Z,11.57
2019-03-17T16:09:04.338Z,11.57
2019-03-17T16:11:35.362Z,20.63
2019-03-17T16:14:06.545Z,10.13
2019-03-17T16:16:36.419Z,8.30
2019-03-17T16:19:07.362Z,8.20
2019-03-17T16:21:38.227Z,8.60
2019-03-17T16:24:12.118Z,8.50
2019-03-17T16:26:42.014Z,28.13
2019-03-17T16:29:11.969Z,10.33
2019-03-17T16:31:44.086Z,9.83
2019-03-17T16:34:14.007Z,20.37
2019-03-17T16:36:45.416Z,15.87
2019-03-17T16:39:17.831Z,13.90
2019-03-17T16:41:47.640Z,24.43
2019-03-17T16:44:19.119Z,22.10
2019-03-17T16:46:50.737Z,8.67
2019-03-17T16:49:22.475Z,9.63
2019-03-17T16:51:54.740Z,11.83
2019-03-17T16:54:27.319Z,10.70
2019-03-17T16:56:58.301Z,11.63
2019-03-17T16:59:29.204Z,8.83
2019-03-17T17:02:00.132Z,8.93
2019-03-17T17:04:30.919Z,11.17
2019-03-17T17:07:01.956Z,25.60
2019-03-17T17:09:33.263Z,32.17
2019-03-17T17:12:04.183Z,20.47
2019-03-17T17:14:35.343Z,12.03
2019-03-17T17:17:07.212Z,9.97
2019-03-17T17:19:38.044Z,14.27
2019-03-17T17:22:08.892Z,12.00
2019-03-17T17:24:39.814Z,19.60
2019-03-17T17:27:09.753Z,19.30
2019-03-17T17:29:39.588Z,14.60
2019-03-17T17:32:10.845Z,21.03
2019-03-17T17:34:40.708Z,19.97
2019-03-17T17:37:11.710Z,14.83
2019-03-17T17:39:41.552Z,12.50
2019-03-17T17:42:12.771Z,13.40
2019-03-17T17:44:42.818Z,16.27
2019-03-17T17:47:15.216Z,12.50
2019-03-17T17:49:46.298Z,11.33
2019-03-17T17:52:17.463Z,13.27
2019-03-17T17:54:47.290Z,13.93
2019-03-17T17:57:18.129Z,15.90
2019-03-17T17:59:47.457Z,36.87
2019-03-17T18:02:17.337Z,125.85
2019-03-17T18:04:47.259Z,46.37
2019-03-17T18:09:54.764Z,29.80
2019-03-17T18:12:25.474Z,34.53
2019-03-17T18:14:56.427Z,25.77
2019-03-17T18:17:29.531Z,27.00
2019-03-17T18:20:02.052Z,26.60
2019-03-17T18:22:32.993Z,22.87
2019-03-17T18:25:03.987Z,22.03
2019-03-17T18:27:34.945Z,20.90
2019-03-17T18:30:07.096Z,15.73
2019-03-17T18:32:38.542Z,15.57
2019-03-17T18:35:11.196Z,12.80
2019-03-17T18:37:41.961Z,14.10
2019-03-17T18:40:22.777Z,9.93
2019-03-17T18:42:53.633Z,11.97
2019-03-17T18:45:28.995Z,13.32
2019-03-17T18:47:58.879Z,12.83
2019-03-17T18:50:28.772Z,12.33
2019-03-17T18:52:58.819Z,13.50
2019-03-17T18:55:28.669Z,13.57
2019-03-17T18:57:59.683Z,15.20
2019-03-17T19:00:31.483Z,13.47
2019-03-17T19:03:02.558Z,11.73
2019-03-17T19:05:32.418Z,15.50
2019-03-17T19:08:03.793Z,14.27
2019-03-17T19:10:34.647Z,22.07
2019-03-17T19:13:06.820Z,15.13
2019-03-17T19:15:38.286Z,14.70
2019-03-17T19:18:10.649Z,9.03
2019-03-17T19:20:40.411Z,10.00
2019-03-17T19:23:11.250Z,11.83
2019-03-17T19:25:43.695Z,8.57
2019-03-17T19:28:13.566Z,7.57
2019-03-17T19:30:43.508Z,8.10
2019-03-17T19:33:14.650Z,8.10
2019-03-17T19:35:45.683Z,9.63
2019-03-17T19:38:17.783Z,8.00
2019-03-17T19:40:49.115Z,6.97
2019-03-17T19:43:20.133Z,4.40
2019-03-17T19:45:50.024Z,4.10
2019-03-17T19:48:23.166Z,3.00
2019-03-17T19:50:52.989Z,2.83
2019-03-17T19:53:22.805Z,2.22
2019-03-17T19:55:54.771Z,2.93
2019-03-17T19:58:25.655Z,2.23
2019-03-17T20:00:56.641Z,2.20
2019-03-17T20:03:28.920Z,2.10
2019-03-17T20:06:02.542Z,2.30
2019-03-17T20:08:32.396Z,2.53
2019-03-17T20:11:04.558Z,2.37
2019-03-17T20:13:35.617Z,2.47
2019-03-17T20:16:08.576Z,2.83
2019-03-17T20:18:41.261Z,2.90
2019-03-17T20:21:10.960Z,2.93
2019-03-17T20:23:43.216Z,3.13
2019-03-17T20:26:14.162Z,2.63
2019-03-17T20:28:46.677Z,2.30
2019-03-17T20:31:18.015Z,2.30
2019-03-17T20:33:49.355Z,2.27
2019-03-17T20:36:20.319Z,2.10
2019-03-17T20:38:51.190Z,2.47
2019-03-17T20:41:20.997Z,2.58
2019-03-17T20:43:50.758Z,2.70
2019-03-17T20:46:21.480Z,3.47
2019-03-17T20:48:52.800Z,2.60
2019-03-17T20:51:22.688Z,3.13
2019-03-17T20:53:53.716Z,2.97
2019-03-17T20:56:24.479Z,3.10
2019-03-17T20:58:54.575Z,2.47
2019-03-17T21:01:25.318Z,2.60
2019-03-17T21:03:56.154Z,1.77
2019-03-17T21:06:25.918Z,1.70
2019-03-17T21:08:55.904Z,1.70
2019-03-17T21:11:26.839Z,1.50
2019-03-17T21:13:57.643Z,1.80
2019-03-17T21:16:29.191Z,1.60
2019-03-17T21:18:58.905Z,1.33
2019-03-17T21:21:31.999Z,1.40
2019-03-17T21:24:02.866Z,1.53
2019-03-17T21:26:34.186Z,1.70
2019-03-17T21:29:04.051Z,1.73
2019-03-17T21:31:35.410Z,1.30
2019-03-17T21:34:07.037Z,1.67
2019-03-17T21:36:37.917Z,1.87
2019-03-17T21:39:09.689Z,1.40
2019-03-17T21:41:42.704Z,1.60
2019-03-17T21:44:15.700Z,1.40
2019-03-17T21:46:46.881Z,1.50
2019-03-17T21:49:19.247Z,1.70
2019-03-17T21:51:49.221Z,2.20
2019-03-17T21:54:21.519Z,1.47
2019-03-17T21:56:52.562Z,1.83
2019-03-17T21:59:25.152Z,1.70
2019-03-17T22:01:56.056Z,1.90
2019-03-17T22:04:28.170Z,2.13
2019-03-17T22:06:59.031Z,1.73
2019-03-17T22:09:29.804Z,1.80
2019-03-17T22:12:03.237Z,2.27
2019-03-17T22:14:33.203Z,1.73
2019-03-17T22:17:04.139Z,2.30
2019-03-17T22:19:36.450Z,1.90
2019-03-17T22:22:08.930Z,1.43
2019-03-17T22:24:37.807Z,1.63
2019-03-17T22:27:10.835Z,1.90
2019-03-17T22:29:41.799Z,1.67
2019-03-17T22:32:11.053Z,1.95
2019-03-17T22:34:41.788Z,2.17
2019-03-17T22:37:11.835Z,2.27
2019-03-17T22:39:42.612Z,1.90
2019-03-17T22:42:13.685Z,2.10
2019-03-17T22:44:45.025Z,2.10
2019-03-17T22:47:14.967Z,2.00
2019-03-17T22:49:45.935Z,1.93
2019-03-17T22:52:18.388Z,2.10
2019-03-17T22:54:51.377Z,1.70
2019-03-17T22:57:21.488Z,1.90
2019-03-17T22:59:52.462Z,1.80
2019-03-17T23:02:23.462Z,1.30
2019-03-17T23:04:53.378Z,1.63
2019-03-17T23:07:24.215Z,1.67
2019-03-17T23:09:55.297Z,1.63
2019-03-17T23:12:26.333Z,1.47
2019-03-17T23:14:59.229Z,1.87
2019-03-17T23:17:49.647Z,1.73
2019-03-17T23:20:20.494Z,1.70
2019-03-17T23:22:51.496Z,1.83
2019-03-17T23:25:23.836Z,1.90
2019-03-17T23:27:58.491Z,2.27
2019-03-17T23:30:31.186Z,2.40
2019-03-17T23:33:02.025Z,2.00
2019-03-17T23:35:32.079Z,2.40
2019-03-17T23:38:03.808Z,2.60
2019-03-17T23:40:34.770Z,2.50
2019-03-17T23:43:07.797Z,2.73
2019-03-17T23:45:40.197Z,3.00
2019-03-17T23:48:14.275Z,3.33
2019-03-17T23:50:44.119Z,2.60
2019-03-17T23:53:13.909Z,2.40
2019-03-17T23:55:44.851Z,3.10
2019-03-17T23:58:17.317Z,2.50
